Time;durP1;ratioP1;P1;durP2;ratioP2;P2;SDS_P1;SDS_P2;PMS_P1;PMS_P2;Temp;Humidity;BMP_temperature;BMP_pressure;BME280_temperature;BME280_humidity;BME280_pressure;Samples;Min_cycle;Max_cycle;Signal;HPM_P1;HPM_P2
2023/03/28 00:01:30;;;;;;;7.13;4.30;;;4.80;99.90;;;;;;5054334;28;20025;-70
2023/03/28 00:03:56;;;;;;;7.87;4.70;;;4.50;99.90;;;;;;5054779;28;20025;-69
2023/03/28 00:06:23;;;;;;;7.55;4.30;;;4.50;99.90;;;;;;5054522;28;20021;-69
2023/03/28 00:11:20;;;;;;;5.90;3.73;;;4.40;99.90;;;;;;5090377;22;20401;-69
2023/03/28 00:13:56;;;;;;;6.18;3.65;;;4.40;99.90;;;;;;5076226;28;20031;-69
2023/03/28 00:16:24;;;;;;;9.20;3.83;;;4.40;99.90;;;;;;5073854;28;20082;-69
2023/03/28 00:18:50;;;;;;;6.32;3.20;;;4.40;99.90;;;;;;5075609;28;20028;-70
2023/03/28 00:21:32;;;;;;;7.72;3.97;;;4.40;99.90;;;;;;5055885;28;20021;-69
2023/03/28 00:24:02;;;;;;;7.75;3.90;;;4.50;99.90;;;;;;5055997;28;20021;-69
2023/03/28 00:26:34;;;;;;;6.65;3.30;;;4.40;99.90;;;;;;5055162;28;20028;-69
2023/03/28 00:29:02;;;;;;;7.95;4.15;;;4.30;99.90;;;;;;5053409;28;20043;-69
2023/03/28 00:31:28;;;;;;;7.40;3.85;;;4.40;99.90;;;;;;5053850;28;20401;-70
2023/03/28 00:33:55;;;;;;;6.10;3.10;;;4.40;99.90;;;;;;5053174;28;20531;-69
2023/03/28 00:36:22;;;;;;;7.15;3.60;;;4.50;99.90;;;;;;5054077;28;20397;-69
2023/03/28 00:38:52;;;;;;;5.85;3.78;;;4.40;99.90;;;;;;5034268;28;20501;-69
2023/03/28 00:41:20;;;;;;;7.35;3.95;;;4.40;99.90;;;;;;5034539;28;20028;-69
2023/03/28 00:43:48;;;;;;;6.88;3.50;;;4.40;99.90;;;;;;5033209;28;20033;-69
2023/03/28 00:46:23;;;;;;;6.88;3.70;;;4.40;99.90;;;;;;5034164;28;20045;-69
2023/03/28 00:49:04;;;;;;;4.95;3.45;;;4.30;99.90;;;;;;5033943;28;20100;-69
2023/03/28 00:51:36;;;;;;;5.05;3.33;;;4.40;99.90;;;;;;5034323;28;20018;-69
2023/03/28 00:54:03;;;;;;;8.13;3.67;;;4.30;99.90;;;;;;5034796;28;20049;-69
2023/03/28 00:56:33;;;;;;;9.13;3.45;;;4.20;99.90;;;;;;5049658;28;20076;-69
2023/03/28 00:59:03;;;;;;;7.53;3.20;;;4.20;99.90;;;;;;5033074;28;20017;-69
2023/03/28 01:01:28;;;;;;;7.28;3.40;;;4.10;99.90;;;;;;5045655;28;20021;-70
2023/03/28 01:04:04;;;;;;;5.13;3.57;;;4.00;99.90;;;;;;5055863;28;20027;-69
2023/03/28 01:06:33;;;;;;;6.18;3.20;;;4.00;99.90;;;;;;5057546;28;20027;-69
2023/03/28 01:09:03;;;;;;;7.43;3.78;;;4.00;99.90;;;;;;5071795;28;20518;-69
2023/03/28 01:11:29;;;;;;;9.52;3.20;;;3.90;99.90;;;;;;5055198;28;20029;-69
2023/03/28 01:13:58;;;;;;;7.07;2.92;;;3.90;99.90;;;;;;5054259;28;20032;-69
2023/03/28 01:16:25;;;;;;;7.22;3.50;;;4.00;99.90;;;;;;5053625;28;20036;-69
2023/03/28 01:18:51;;;;;;;6.70;2.70;;;4.10;99.90;;;;;;5052977;28;20501;-69
2023/03/28 01:21:37;;;;;;;6.30;2.90;;;4.10;99.90;;;;;;5052053;28;20063;-69
2023/03/28 01:24:14;;;;;;;5.88;2.83;;;3.90;99.90;;;;;;5052305;28;20025;-69
2023/03/28 01:26:52;;;;;;;5.80;2.97;;;4.00;99.90;;;;;;5053523;28;20115;-69
2023/03/28 01:29:36;;;;;;;7.47;3.25;;;4.00;99.90;;;;;;5054615;28;20543;-69
2023/03/28 01:32:17;;;;;;;4.50;3.03;;;3.90;99.90;;;;;;5052182;28;20393;-69
2023/03/28 01:35:13;;;;;;;5.00;3.03;;;3.90;99.90;;;;;;5054098;28;20057;-69
2023/03/28 01:38:00;;;;;;;5.10;2.90;;;3.80;99.90;;;;;;5053445;28;20029;-69
2023/03/28 01:40:58;;;;;;;6.43;2.90;;;3.70;99.90;;;;;;5053816;28;20021;-69
2023/03/28 01:43:45;;;;;;;5.03;3.42;;;3.70;99.90;;;;;;5053776;28;20350;-68
2023/03/28 01:46:30;;;;;;;7.43;2.80;;;3.60;99.90;;;;;;5053215;28;20158;-69
2023/03/28 01:49:20;;;;;;;8.60;3.30;;;3.50;99.90;;;;;;5032987;28;20025;-68
2023/03/28 01:52:01;;;;;;;4.20;2.42;;;3.50;99.90;;;;;;5036240;28;20041;-68
2023/03/28 01:54:40;;;;;;;6.18;2.83;;;3.50;99.90;;;;;;5035230;28;20363;-69
2023/03/28 01:57:12;;;;;;;6.72;2.63;;;3.50;99.90;;;;;;5032831;28;20022;-69
2023/03/28 01:59:43;;;;;;;8.40;3.20;;;3.60;99.90;;;;;;5033378;28;20022;-69
2023/03/28 02:02:29;;;;;;;8.27;2.88;;;3.60;99.90;;;;;;5035313;28;20025;-69
2023/03/28 02:04:58;;;;;;;4.40;2.47;;;3.60;99.90;;;;;;5051929;28;20021;-68
2023/03/28 02:07:24;;;;;;;5.78;2.92;;;3.60;99.90;;;;;;5052955;28;20059;-67
2023/03/28 02:09:53;;;;;;;5.55;2.65;;;3.60;99.90;;;;;;5068106;28;20029;-68
2023/03/28 02:12:24;;;;;;;5.85;3.03;;;3.40;99.90;;;;;;5052036;28;20025;-68
2023/03/28 02:14:52;;;;;;;6.57;3.20;;;3.40;99.90;;;;;;5053268;28;20040;-67
2023/03/28 02:17:20;;;;;;;6.13;2.60;;;3.40;99.90;;;;;;5053544;28;20063;-67
2023/03/28 02:19:57;;;;;;;6.70;2.97;;;3.40;99.90;;;;;;5054113;28;20036;-68
2023/03/28 02:22:37;;;;;;;;;;;3.40;99.90;;;;;;5054050;28;20029;-68
2023/03/28 02:25:04;;;;;;;5.43;3.13;;;3.40;99.90;;;;;;5051429;28;19927;-68
2023/03/28 02:27:32;;;;;;;7.40;3.88;;;3.40;99.90;;;;;;5051374;28;20040;-68
2023/03/28 02:29:58;;;;;;;5.90;2.58;;;3.50;99.90;;;;;;5052691;28;20025;-68
2023/03/28 02:32:24;;;;;;;7.18;3.10;;;3.40;99.90;;;;;;5054603;28;20021;-68
2023/03/28 02:34:53;;;;;;;6.63;3.03;;;3.40;99.90;;;;;;5056539;28;20102;-68
2023/03/28 02:37:44;;;;;;;8.45;2.85;;;3.40;99.90;;;;;;5056461;28;20071;-67
2023/03/28 02:40:40;;;;;;;8.88;2.90;;;3.40;99.90;;;;;;5056779;28;20028;-68
2023/03/28 02:43:31;;;;;;;8.43;2.60;;;3.40;99.90;;;;;;5071504;28;20031;-67
2023/03/28 02:46:12;;;;;;;4.55;2.75;;;3.40;99.90;;;;;;5071899;28;20029;-70
2023/03/28 02:48:55;;;;;;;4.78;2.65;;;3.50;99.90;;;;;;5056753;28;20397;-69
2023/03/28 02:51:28;;;;;;;8.10;3.17;;;3.50;99.90;;;;;;5057483;28;20545;-68
2023/03/28 02:54:23;;;;;;;4.00;2.50;;;3.60;99.90;;;;;;5056279;28;20043;-68
2023/03/28 02:57:03;;;;;;;6.88;2.88;;;3.50;99.90;;;;;;5055706;28;20552;-68
2023/03/28 02:59:51;;;;;;;7.40;3.28;;;3.50;99.90;;;;;;5055860;28;20028;-68
2023/03/28 03:02:20;;;;;;;8.60;3.08;;;3.60;99.90;;;;;;5056533;28;20017;-69
2023/03/28 03:04:46;;;;;;;6.00;2.97;;;3.40;99.90;;;;;;5056892;28;20025;-67
2023/03/28 03:07:12;;;;;;;4.85;2.92;;;3.40;99.90;;;;;;5054089;28;20443;-68
2023/03/28 03:09:39;;;;;;;6.13;3.05;;;3.40;99.90;;;;;;5055644;28;20060;-68
2023/03/28 03:12:05;;;;;;;6.75;3.28;;;3.20;99.90;;;;;;5054437;28;20032;-68
2023/03/28 03:14:31;;;;;;;6.72;2.67;;;3.20;99.90;;;;;;5056891;28;20029;-68
2023/03/28 03:16:56;;;;;;;6.97;3.30;;;3.20;99.90;;;;;;5055604;28;20037;-68
2023/03/28 03:19:22;;;;;;;9.83;3.50;;;3.10;99.90;;;;;;5055363;28;20021;-68
2023/03/28 03:21:48;;;;;;;8.87;3.63;;;3.10;99.90;;;;;;5054280;28;20123;-68
2023/03/28 03:24:14;;;;;;;;;;;3.10;99.90;;;;;;5056376;28;20024;-68
2023/03/28 03:26:40;;;;;;;5.15;3.35;;;3.10;99.90;;;;;;5055644;28;19911;-68
2023/03/28 03:29:06;;;;;;;6.18;3.28;;;3.10;99.90;;;;;;5055514;28;20044;-68
2023/03/28 03:31:32;;;;;;;5.68;3.47;;;3.10;99.90;;;;;;5054427;28;20502;-68
2023/03/28 03:33:58;;;;;;;9.67;3.47;;;3.20;99.90;;;;;;5055424;28;20029;-68
2023/03/28 03:36:25;;;;;;;5.60;3.45;;;3.30;99.90;;;;;;5055104;28;20099;-68
2023/03/28 03:38:51;;;;;;;9.43;3.80;;;3.30;99.90;;;;;;5055347;28;20040;-68
2023/03/28 03:41:17;;;;;;;4.70;3.28;;;3.30;99.90;;;;;;5055566;28;20470;-68
2023/03/28 03:43:42;;;;;;;9.70;3.57;;;3.30;99.90;;;;;;5053295;28;20033;-68
2023/03/28 03:46:08;;;;;;;6.57;3.50;;;3.20;99.90;;;;;;5053744;28;20025;-68
2023/03/28 03:48:34;;;;;;;9.07;3.47;;;3.20;99.90;;;;;;5042000;28;20040;-69
2023/03/28 03:50:59;;;;;;;7.23;3.93;;;3.20;99.90;;;;;;5035034;28;20084;-69
2023/03/28 03:53:25;;;;;;;12.43;7.67;;;3.10;99.90;;;;;;5039775;28;20031;-68
2023/03/28 03:55:50;;;;;;;11.57;4.53;;;3.00;99.90;;;;;;5053828;28;20025;-68
2023/03/28 03:58:17;;;;;;;6.13;3.47;;;3.00;99.90;;;;;;5055321;28;20075;-68
2023/03/28 04:00:43;;;;;;;6.63;4.50;;;3.10;99.90;;;;;;5057750;28;20024;-68
2023/03/28 04:03:09;;;;;;;10.98;4.28;;;3.00;99.90;;;;;;5056124;28;20041;-69
2023/03/28 04:05:34;;;;;;;6.03;4.17;;;2.90;99.90;;;;;;5073068;28;20036;-69
2023/03/28 04:08:00;;;;;;;8.00;4.30;;;2.90;99.90;;;;;;5057749;28;20028;-69
2023/03/28 04:10:26;;;;;;;7.00;4.33;;;2.90;99.90;;;;;;5057924;28;20036;-70
2023/03/28 04:12:51;;;;;;;8.53;4.37;;;2.90;99.90;;;;;;5053090;28;20268;-70
2023/03/28 04:15:17;;;;;;;6.63;4.43;;;2.80;99.90;;;;;;5046015;28;20013;-70
2023/03/28 04:17:42;;;;;;;10.07;4.73;;;2.80;99.90;;;;;;5043284;28;20079;-70
2023/03/28 04:20:12;;;;;;;7.00;4.33;;;2.80;99.90;;;;;;5058115;28;20029;-69
2023/03/28 04:22:38;;;;;;;7.07;4.18;;;2.90;99.90;;;;;;5056163;28;20109;-70
2023/03/28 04:25:05;;;;;;;5.53;3.72;;;2.80;99.90;;;;;;5054546;28;20029;-69
2023/03/28 04:27:30;;;;;;;;;;;2.70;99.90;;;;;;5055112;28;20155;-69
2023/03/28 04:29:59;;;;;;;9.18;4.38;;;2.60;99.90;;;;;;5053970;28;19940;-69
2023/03/28 04:32:25;;;;;;;6.50;4.25;;;2.60;99.90;;;;;;5054731;28;20028;-69
2023/03/28 04:34:50;;;;;;;7.73;4.23;;;2.50;99.90;;;;;;5054386;28;20378;-69
2023/03/28 04:37:17;;;;;;;10.20;4.83;;;2.60;99.90;;;;;;5054890;28;20033;-72
2023/03/28 04:39:46;;;;;;;10.40;4.78;;;2.70;99.90;;;;;;5053215;28;20389;-73
2023/03/28 04:42:15;;;;;;;9.73;4.40;;;2.70;99.90;;;;;;5055219;28;20381;-70
2023/03/28 04:44:41;;;;;;;8.95;4.43;;;2.80;99.90;;;;;;5055207;28;20031;-70
2023/03/28 04:47:10;;;;;;;8.50;3.90;;;2.80;99.90;;;;;;5050054;28;20112;-70
2023/03/28 04:49:37;;;;;;;7.68;4.30;;;2.90;99.90;;;;;;5046651;28;20040;-69
2023/03/28 04:52:03;;;;;;;5.70;3.70;;;2.80;99.90;;;;;;5053279;28;20071;-69
2023/03/28 04:54:28;;;;;;;7.38;4.00;;;2.80;99.90;;;;;;5051705;28;20040;-69
2023/03/28 04:56:54;;;;;;;10.63;4.90;;;2.80;99.90;;;;;;5073931;28;20440;-69
2023/03/28 04:59:20;;;;;;;12.90;4.23;;;2.80;99.90;;;;;;5051328;28;20389;-70
2023/03/28 05:01:48;;;;;;;7.93;3.70;;;2.80;99.90;;;;;;5053024;28;20021;-68
2023/03/28 05:04:18;;;;;;;11.68;4.65;;;2.80;99.90;;;;;;5053173;28;20017;-69
2023/03/28 05:06:45;;;;;;;9.48;4.53;;;2.90;99.90;;;;;;5055637;28;20484;-69
2023/03/28 05:09:13;;;;;;;9.57;4.38;;;2.90;99.90;;;;;;5052682;28;20036;-70
2023/03/28 05:11:40;;;;;;;8.38;4.78;;;2.90;99.90;;;;;;5054099;28;20541;-69
2023/03/28 05:14:06;;;;;;;9.57;4.43;;;3.00;99.90;;;;;;5053258;28;20029;-68
2023/03/28 05:16:31;;;;;;;9.45;4.50;;;2.90;99.90;;;;;;5053514;28;20067;-68
2023/03/28 05:18:57;;;;;;;8.87;4.57;;;2.80;99.90;;;;;;5047844;28;20052;-69
2023/03/28 05:21:23;;;;;;;10.80;4.70;;;2.70;99.90;;;;;;5033961;28;20032;-69
2023/03/28 05:23:50;;;;;;;8.80;4.75;;;2.70;99.90;;;;;;5049642;28;20418;-69
2023/03/28 05:26:16;;;;;;;10.48;5.07;;;2.70;99.90;;;;;;5053700;28;20382;-69
2023/03/28 05:28:42;;;;;;;9.70;4.55;;;2.70;99.90;;;;;;5054059;28;20092;-69
2023/03/28 05:31:07;;;;;;;10.13;5.05;;;2.50;99.90;;;;;;5053547;28;20044;-69
2023/03/28 05:33:34;;;;;;;8.03;4.80;;;2.40;99.90;;;;;;5052446;28;20481;-70
2023/03/28 05:36:01;;;;;;;11.55;4.70;;;2.40;99.90;;;;;;5054549;28;20020;-70
2023/03/28 05:38:32;;;;;;;9.05;5.63;;;2.30;99.90;;;;;;5053193;28;20021;-69
2023/03/28 05:40:57;;;;;;;7.07;4.15;;;2.30;99.90;;;;;;5053068;28;20021;-69
2023/03/28 05:43:24;;;;;;;15.33;5.20;;;2.30;99.90;;;;;;5052840;28;20021;-69
2023/03/28 05:45:49;;;;;;;8.98;4.68;;;2.20;99.90;;;;;;5051563;28;20032;-70
2023/03/28 05:48:15;;;;;;;12.90;4.30;;;2.40;99.90;;;;;;5049846;28;20029;-68
2023/03/28 05:50:43;;;;;;;8.97;4.50;;;2.50;99.90;;;;;;5051565;28;20453;-68
2023/03/28 05:53:09;;;;;;;9.43;4.32;;;2.50;99.90;;;;;;5049236;28;20500;-68
2023/03/28 05:55:35;;;;;;;5.32;3.55;;;2.60;99.90;;;;;;5050979;28;20146;-69
2023/03/28 05:58:01;;;;;;;9.80;4.05;;;2.60;99.90;;;;;;5050003;28;20021;-70
2023/03/28 06:00:27;;;;;;;6.13;3.87;;;2.50;99.90;;;;;;5051790;28;20021;-68
2023/03/28 06:02:53;;;;;;;7.35;3.97;;;2.40;99.90;;;;;;5055240;28;20114;-68
2023/03/28 06:05:19;;;;;;;9.85;5.00;;;2.40;99.90;;;;;;5067953;28;20525;-70
2023/03/28 06:07:46;;;;;;;10.30;4.10;;;2.50;99.90;;;;;;5055216;28;20504;-68
2023/03/28 06:10:13;;;;;;;8.55;4.18;;;2.40;99.90;;;;;;5056826;28;20048;-67
2023/03/28 06:12:39;;;;;;;9.95;3.35;;;2.60;99.90;;;;;;5056944;28;20025;-68
2023/03/28 06:15:05;;;;;;;6.28;3.17;;;2.70;99.90;;;;;;5056822;28;20132;-67
2023/03/28 06:17:31;;;;;;;6.45;3.25;;;2.70;99.90;;;;;;5054129;28;20111;-69
2023/03/28 06:19:56;;;;;;;5.20;3.33;;;2.70;99.90;;;;;;5056534;28;20413;-69
2023/03/28 06:22:22;;;;;;;9.43;4.40;;;2.90;99.90;;;;;;5056388;28;20025;-69
2023/03/28 06:24:48;;;;;;;8.90;3.53;;;3.00;99.90;;;;;;5054551;28;20069;-69
2023/03/28 06:27:13;;;;;;;9.63;3.60;;;3.00;99.90;;;;;;5055700;28;20033;-69
2023/03/28 06:29:39;;;;;;;10.00;3.53;;;3.00;99.90;;;;;;5055286;28;20031;-70
2023/03/28 06:32:05;;;;;;;14.07;3.97;;;3.00;99.90;;;;;;5054525;28;20029;-70
2023/03/28 06:34:31;;;;;;;5.72;3.50;;;2.90;99.90;;;;;;5053816;28;20025;-68
2023/03/28 06:36:58;;;;;;;6.00;3.60;;;3.00;99.90;;;;;;5056683;28;20048;-68
2023/03/28 06:39:24;;;;;;;10.75;4.28;;;3.10;99.90;;;;;;5056435;28;20358;-68
2023/03/28 06:41:49;;;;;;;7.43;3.60;;;3.30;99.90;;;;;;5056375;28;20024;-69
2023/03/28 06:44:15;;;;;;;7.70;3.70;;;3.30;99.90;;;;;;5056380;28;20029;-69
2023/03/28 06:46:41;;;;;;;9.00;3.53;;;3.30;99.90;;;;;;5056028;28;20036;-69
2023/03/28 06:49:06;;;;;;;7.57;3.40;;;3.20;99.90;;;;;;5055415;28;20473;-69
2023/03/28 06:51:32;;;;;;;7.83;3.50;;;3.20;99.90;;;;;;5056010;28;20037;-69
2023/03/28 06:53:58;;;;;;;7.27;3.37;;;3.30;99.90;;;;;;5055625;28;20123;-69
2023/03/28 06:56:23;;;;;;;7.33;3.93;;;3.30;99.90;;;;;;5055890;28;20291;-69
2023/03/28 06:58:49;;;;;;;7.27;4.17;;;3.40;99.90;;;;;;5070490;28;20108;-69
2023/03/28 07:01:15;;;;;;;9.23;3.72;;;3.30;99.90;;;;;;5055209;28;20779;-70
2023/03/28 07:03:40;;;;;;;11.20;3.97;;;3.40;99.90;;;;;;5052597;28;20025;-69
2023/03/28 07:06:07;;;;;;;8.17;3.63;;;3.50;99.90;;;;;;5054849;28;20029;-68
2023/03/28 07:08:33;;;;;;;8.20;3.80;;;3.60;99.90;;;;;;5055938;28;20326;-71
2023/03/28 07:10:58;;;;;;;8.10;3.78;;;3.60;99.90;;;;;;5054786;28;20029;-69
2023/03/28 07:13:24;;;;;;;6.50;3.10;;;3.80;99.90;;;;;;5055672;28;20029;-68
2023/03/28 07:16:04;;;;;;;5.87;3.60;;;3.80;99.90;;;;;;5054574;28;20108;-68
2023/03/28 07:18:30;;;;;;;7.40;3.75;;;4.00;99.90;;;;;;5069850;28;20025;-68
2023/03/28 07:20:55;;;;;;;13.57;4.00;;;4.00;99.90;;;;;;5055245;28;20021;-69
2023/03/28 07:23:21;;;;;;;9.03;4.10;;;4.00;99.90;;;;;;5055901;28;20028;-68
2023/03/28 07:25:47;;;;;;;10.07;4.10;;;4.10;99.90;;;;;;5054999;28;20033;-68
2023/03/28 07:28:12;;;;;;;7.23;4.00;;;4.10;99.90;;;;;;5053353;28;20033;-69
2023/03/28 07:30:38;;;;;;;7.13;3.80;;;4.30;99.90;;;;;;5052831;28;20035;-68
2023/03/28 07:33:03;;;;;;;8.07;4.30;;;4.30;99.90;;;;;;5058970;28;20117;-69
2023/03/28 07:35:29;;;;;;;7.97;4.07;;;4.40;99.90;;;;;;5055291;28;20025;-68
2023/03/28 07:37:54;;;;;;;9.33;4.13;;;4.40;99.90;;;;;;5057575;28;20032;-68
2023/03/28 07:40:20;;;;;;;7.53;4.30;;;4.40;99.90;;;;;;5055143;28;20032;-68
2023/03/28 07:42:48;;;;;;;7.63;4.07;;;4.40;99.90;;;;;;5069920;28;20334;-67
2023/03/28 07:45:14;;;;;;;9.80;4.13;;;4.50;99.90;;;;;;5053571;28;20044;-69
2023/03/28 07:47:39;;;;;;;8.38;4.70;;;4.50;99.90;;;;;;5055552;28;20319;-69
2023/03/28 07:50:06;;;;;;;7.10;4.30;;;4.60;99.90;;;;;;5070910;28;20453;-69
2023/03/28 07:52:32;;;;;;;8.55;4.38;;;4.70;99.90;;;;;;5056053;28;20485;-68
2023/03/28 07:54:57;;;;;;;8.15;4.30;;;4.80;99.90;;;;;;5053427;28;20036;-68
2023/03/28 07:57:23;;;;;;;15.83;5.40;;;4.80;99.90;;;;;;5056923;28;20024;-69
2023/03/28 07:59:49;;;;;;;9.50;5.10;;;4.90;99.90;;;;;;5054494;28;20390;-68
2023/03/28 08:02:15;;;;;;;8.57;4.57;;;5.00;99.90;;;;;;5070278;28;20017;-69
2023/03/28 08:04:41;;;;;;;11.93;4.70;;;5.10;99.90;;;;;;5052987;28;20032;-68
2023/03/28 08:07:06;;;;;;;7.20;4.07;;;5.20;99.90;;;;;;5053960;28;20025;-69
2023/03/28 08:09:32;;;;;;;8.97;3.70;;;5.30;99.90;;;;;;5052497;28;20063;-69
2023/03/28 08:11:58;;;;;;;11.77;4.20;;;5.30;99.90;;;;;;5055026;28;20029;-69
2023/03/28 08:14:23;;;;;;;9.33;4.40;;;5.40;99.90;;;;;;5053271;28;20508;-69
2023/03/28 08:16:49;;;;;;;8.07;3.70;;;5.40;99.90;;;;;;5054648;28;20037;-69
2023/03/28 08:19:15;;;;;;;9.20;3.60;;;5.40;99.90;;;;;;5058155;28;20081;-68
2023/03/28 08:21:40;;;;;;;5.67;3.47;;;5.60;99.90;;;;;;5054179;28;20021;-69
2023/03/28 08:24:08;;;;;;;8.70;2.97;;;5.60;99.90;;;;;;5054888;28;20101;-69
2023/03/28 08:26:34;;;;;;;6.80;3.20;;;5.70;99.90;;;;;;5069556;28;20435;-68
2023/03/28 08:28:59;;;;;;;7.50;3.03;;;5.80;99.90;;;;;;5054773;28;20100;-70
2023/03/28 08:31:27;;;;;;;10.93;3.10;;;5.80;99.90;;;;;;5052849;28;20029;-68
2023/03/28 08:33:53;;;;;;;11.90;2.92;;;5.70;99.90;;;;;;5052880;28;20083;-68
2023/03/28 08:36:21;;;;;;;8.40;3.42;;;5.80;99.90;;;;;;5052189;28;20089;-69
2023/03/28 08:38:52;;;;;;;5.65;2.70;;;5.90;99.90;;;;;;5054078;28;20033;-69
2023/03/28 08:41:36;;;;;;;6.97;2.70;;;5.90;99.90;;;;;;5053175;28;20104;-68
2023/03/28 08:44:20;;;;;;;9.05;2.70;;;6.10;99.90;;;;;;5034228;28;20083;-68
2023/03/28 08:46:53;;;;;;;5.50;2.53;;;6.20;99.90;;;;;;5051175;28;20109;-69
2023/03/28 08:49:19;;;;;;;7.45;3.10;;;6.50;99.90;;;;;;5054192;28;20025;-68
2023/03/28 08:51:50;;;;;;;6.25;2.78;;;7.80;99.90;;;;;;5052256;28;20371;-68
2023/03/28 08:54:25;;;;;;;8.27;2.60;;;10.20;99.90;;;;;;5052714;28;20082;-70
2023/03/28 08:56:59;;;;;;;8.10;2.72;;;13.00;96.10;;;;;;5052639;28;20031;-69
2023/03/28 08:59:57;;;;;;;5.53;2.40;;;14.00;90.70;;;;;;5053992;28;20024;-68
2023/03/28 09:02:25;;;;;;;4.57;2.35;;;14.70;90.20;;;;;;5034614;28;20504;-69
2023/03/28 09:04:52;;;;;;;7.80;2.53;;;16.10;84.30;;;;;;5033903;28;20075;-70
2023/03/28 09:07:23;;;;;;;;;;;16.10;81.50;;;;;;5053811;28;20029;-68
2023/03/28 09:10:16;;;;;;;4.72;2.20;;;16.40;79.40;;;;;;5053516;28;19966;-68
2023/03/28 09:13:12;;;;;;;6.13;2.50;;;17.10;76.60;;;;;;5035069;28;20029;-68
2023/03/28 09:15:50;;;;;;;7.90;2.28;;;17.90;73.50;;;;;;5036392;28;20064;-68
2023/03/28 09:18:55;;;;;;;4.57;1.50;;;18.40;70.90;;;;;;5053162;28;20017;-69
2023/03/28 09:21:36;;;;;;;5.65;2.08;;;18.40;67.80;;;;;;5050689;28;20055;-68
2023/03/28 09:24:23;;;;;;;5.15;2.15;;;20.90;64.00;;;;;;5036003;28;20048;-68
2023/03/28 09:26:56;;;;;;;;;;;21.00;61.20;;;;;;5054715;28;20505;-68
2023/03/28 09:29:24;;;;;;;5.72;2.33;;;22.50;57.50;;;;;;5068819;28;19959;-70
2023/03/28 09:31:57;;;;;;;3.85;1.55;;;23.10;54.70;;;;;;5052150;28;20013;-68
2023/03/28 09:34:27;;;;;;;9.40;1.65;;;24.10;52.80;;;;;;5056038;28;20021;-68
2023/03/28 09:36:58;;;;;;;7.57;1.88;;;25.40;49.50;;;;;;5054699;28;20477;-69
2023/03/28 09:39:41;;;;;;;5.47;1.50;;;25.40;49.30;;;;;;5054839;28;20120;-70
2023/03/28 09:42:30;;;;;;;5.30;2.28;;;24.90;49.20;;;;;;5052303;28;20025;-68
2023/03/28 09:45:22;;;;;;;5.28;2.00;;;23.90;50.00;;;;;;5053567;28;20017;-70
2023/03/28 09:47:48;;;;;;;7.70;2.70;;;22.40;50.80;;;;;;5047286;28;20033;-68
2023/03/28 09:50:16;;;;;;;4.78;2.30;;;21.00;53.20;;;;;;5053521;28;20051;-68
2023/03/28 09:52:42;;;;;;;5.90;2.30;;;20.90;53.00;;;;;;5051883;28;20132;-68
2023/03/28 09:55:29;;;;;;;5.30;2.40;;;21.50;53.10;;;;;;5053089;28;20028;-69
2023/03/28 09:58:11;;;;;;;4.65;2.33;;;20.80;53.10;;;;;;5053824;28;20025;-68
2023/03/28 10:00:41;;;;;;;5.97;2.10;;;19.50;54.50;;;;;;5052139;28;20554;-69
2023/03/28 10:03:27;;;;;;;5.38;2.15;;;21.30;53.50;;;;;;5053027;28;20025;-67
2023/03/28 10:05:57;;;;;;;5.60;1.92;;;20.90;53.00;;;;;;5052814;28;20033;-69
2023/03/28 10:08:34;;;;;;;7.20;2.45;;;21.10;52.50;;;;;;5053322;28;20417;-69
2023/03/28 10:11:05;;;;;;;5.82;2.05;;;21.50;51.90;;;;;;5052974;28;20029;-68
2023/03/28 10:13:41;;;;;;;6.30;2.30;;;20.30;53.90;;;;;;5053046;28;20433;-69
2023/03/28 10:16:09;;;;;;;4.97;2.40;;;21.60;52.80;;;;;;5050926;28;20490;-68
2023/03/28 10:18:36;;;;;;;7.05;2.03;;;20.20;52.40;;;;;;5051373;28;20079;-68
2023/03/28 10:21:16;;;;;;;5.35;2.03;;;17.90;55.10;;;;;;5052592;28;20112;-68
2023/03/28 10:23:52;;;;;;;6.10;2.28;;;15.90;58.10;;;;;;5051135;28;20025;-68
2023/03/28 10:26:22;;;;;;;5.00;2.17;;;14.50;60.20;;;;;;5044615;28;20104;-67
2023/03/28 10:28:52;;;;;;;4.18;1.88;;;13.60;60.80;;;;;;5032596;28;20025;-69
2023/03/28 10:31:27;;;;;;;6.63;2.30;;;13.40;62.00;;;;;;5033220;28;20056;-68
2023/03/28 10:33:54;;;;;;;4.57;1.50;;;15.90;58.10;;;;;;5032198;28;20121;-69
2023/03/28 10:36:31;;;;;;;8.30;1.50;;;17.60;55.20;;;;;;5048687;28;20117;-69
2023/03/28 10:38:59;;;;;;;8.27;1.50;;;18.40;51.40;;;;;;5034185;28;20463;-69
2023/03/28 10:41:28;;;;;;;4.85;1.13;;;19.20;50.40;;;;;;5041460;28;20498;-69
2023/03/28 10:43:55;;;;;;;4.68;1.80;;;20.10;49.20;;;;;;5068359;28;20013;-69
2023/03/28 10:46:28;;;;;;;5.07;1.70;;;19.60;50.60;;;;;;5054649;28;20025;-69
2023/03/28 10:49:02;;;;;;;2.75;1.35;;;19.60;51.10;;;;;;5052586;28;20043;-69
2023/03/28 10:51:31;;;;;;;4.63;1.65;;;19.00;50.30;;;;;;5052465;28;20025;-69
2023/03/28 10:54:15;;;;;;;4.15;1.40;;;18.80;50.00;;;;;;5056108;28;20032;-69
2023/03/28 10:57:01;;;;;;;6.05;2.10;;;18.90;49.70;;;;;;5057109;28;20028;-68
2023/03/28 10:59:48;;;;;;;3.75;1.85;;;17.20;52.50;;;;;;5054747;28;20028;-68
2023/03/28 11:02:37;;;;;;;5.43;1.73;;;17.20;53.70;;;;;;5054743;28;20025;-68
2023/03/28 11:05:28;;;;;;;5.70;1.63;;;17.70;52.10;;;;;;5056256;28;20029;-68
2023/03/28 11:08:32;;;;;;;5.13;1.58;;;18.10;51.80;;;;;;5057091;28;20020;-70
2023/03/28 11:11:21;;;;;;;5.65;1.90;;;18.50;50.50;;;;;;5060242;28;20112;-68
2023/03/28 11:14:13;;;;;;;4.82;2.00;;;17.00;52.60;;;;;;5058280;28;20044;-68
2023/03/28 11:16:47;;;;;;;3.20;1.90;;;16.40;54.20;;;;;;5056729;28;20385;-69
2023/03/28 11:19:21;;;;;;;8.32;2.20;;;15.20;55.50;;;;;;5056692;28;20023;-70
2023/03/28 11:21:51;;;;;;;4.28;1.48;;;14.30;56.80;;;;;;5055920;28;20542;-68
2023/03/28 11:24:24;;;;;;;7.68;2.50;;;13.90;58.00;;;;;;5056141;28;20044;-68
2023/03/28 11:27:05;;;;;;;3.42;1.83;;;13.70;58.30;;;;;;5054808;28;20111;-67
2023/03/28 11:29:52;;;;;;;5.88;1.98;;;13.20;58.60;;;;;;5055783;28;20104;-68
2023/03/28 11:32:35;;;;;;;4.40;1.70;;;12.70;60.30;;;;;;5056511;28;20052;-69
2023/03/28 11:35:15;;;;;;;3.95;1.65;;;12.40;61.30;;;;;;5063398;28;20481;-68
2023/03/28 11:37:57;;;;;;;6.28;1.75;;;12.30;61.50;;;;;;5058865;28;20051;-68
2023/03/28 11:40:26;;;;;;;5.75;1.80;;;11.90;61.60;;;;;;5058699;28;20021;-67
2023/03/28 11:43:05;;;;;;;7.25;2.20;;;11.80;63.40;;;;;;5054929;28;20496;-68
2023/03/28 11:45:48;;;;;;;3.08;1.40;;;12.10;62.60;;;;;;5073001;28;20036;-68
2023/03/28 11:48:27;;;;;;;3.97;1.73;;;12.30;62.10;;;;;;5054365;28;20490;-68
2023/03/28 11:51:14;;;;;;;3.72;1.92;;;12.40;61.20;;;;;;5055677;28;20043;-69
2023/03/28 11:53:50;;;;;;;3.67;1.67;;;12.20;62.00;;;;;;5053675;28;20478;-68
2023/03/28 11:56:22;;;;;;;2.75;1.63;;;12.10;61.60;;;;;;5055271;28;20037;-68
2023/03/28 11:58:52;;;;;;;3.58;1.80;;;12.00;61.20;;;;;;5055291;28;20021;-68
2023/03/28 12:01:23;;;;;;;4.80;1.67;;;12.00;61.90;;;;;;5074996;28;20102;-67
2023/03/28 12:04:01;;;;;;;10.32;1.80;;;11.90;62.00;;;;;;5071444;28;20028;-68
2023/03/28 12:06:40;;;;;;;7.03;2.03;;;11.80;62.50;;;;;;5053222;28;20048;-68
2023/03/28 12:09:41;;;;;;;4.60;2.10;;;11.90;62.10;;;;;;5035169;28;20033;-69
2023/03/28 12:12:17;;;;;;;27.40;10.40;;;11.90;62.30;;;;;;5091570;23;20040;-71
2023/03/28 12:14:54;;;;;;;5.45;1.60;;;11.70;64.60;;;;;;5058025;28;20492;-72
2023/03/28 12:17:22;;;;;;;;;;;11.00;62.80;;;;;;5056091;28;20505;-72
2023/03/28 12:19:48;;;;;;;7.60;1.70;;;10.80;64.00;;;;;;5075403;28;19905;-72
2023/03/28 12:22:31;;;;;;;21.83;7.47;;;10.80;63.50;;;;;;5056614;28;20532;-73
2023/03/28 12:25:11;;;;;;;19.20;6.53;;;11.00;65.90;;;;;;5058832;28;20051;-74
2023/03/28 12:27:54;;;;;;;4.38;1.75;;;11.00;66.10;;;;;;5074636;28;20066;-72
2023/03/28 12:30:31;;;;;;;5.18;1.73;;;11.00;63.70;;;;;;5056757;28;20500;-73
2023/03/28 12:33:05;;;;;;;6.97;2.00;;;11.00;64.20;;;;;;5056203;28;20029;-73
2023/03/28 12:35:56;;;;;;;5.53;1.65;;;11.00;63.50;;;;;;5074618;28;20034;-71
2023/03/28 12:38:38;;;;;;;5.15;2.28;;;11.00;63.90;;;;;;5057481;28;20170;-71
2023/03/28 12:41:14;;;;;;;6.13;1.80;;;11.10;63.20;;;;;;5056434;28;20029;-71
2023/03/28 12:43:52;;;;;;;4.60;1.50;;;11.10;64.50;;;;;;5056886;28;20056;-72
2023/03/28 12:46:31;;;;;;;6.28;1.75;;;11.00;63.90;;;;;;5056665;28;20016;-71
2023/03/28 12:49:04;;;;;;;3.67;1.80;;;10.80;63.80;;;;;;5074120;28;20481;-72
2023/03/28 12:51:43;;;;;;;4.10;2.13;;;11.00;65.40;;;;;;5074064;28;20056;-69
2023/03/28 12:54:14;;;;;;;3.88;1.90;;;11.20;66.70;;;;;;5074255;28;20025;-71
2023/03/28 12:56:57;;;;;;;6.53;1.70;;;11.30;65.20;;;;;;5055852;28;20044;-69
2023/03/28 12:59:38;;;;;;;5.93;1.95;;;11.60;65.60;;;;;;5055813;28;20017;-71
2023/03/28 13:02:28;;;;;;;3.88;1.55;;;11.40;64.70;;;;;;5048853;28;20393;-74
2023/03/28 13:05:08;;;;;;;5.80;1.42;;;11.10;63.40;;;;;;5053993;28;20078;-71
2023/03/28 13:08:08;;;;;;;5.85;2.10;;;10.90;64.30;;;;;;5053960;28;20025;-69
2023/03/28 13:11:15;;;;;;;4.97;1.70;;;10.90;64.90;;;;;;5053540;28;20036;-70
2023/03/28 13:13:50;;;;;;;3.97;1.42;;;10.90;65.10;;;;;;5053305;28;20060;-71
2023/03/28 13:16:23;;;;;;;4.68;1.60;;;11.10;65.60;;;;;;5052864;28;20025;-70
2023/03/28 13:19:08;;;;;;;4.53;1.60;;;11.10;64.80;;;;;;5052911;28;20029;-70
2023/03/28 13:21:42;;;;;;;8.55;1.70;;;10.80;64.90;;;;;;5035436;28;20021;-70
2023/03/28 13:24:32;;;;;;;7.07;1.90;;;11.00;65.70;;;;;;5056422;28;20108;-68